AirNav   Air Wisconsin Up To $57,000 Bonus
 
 1638 users online  

37VA St Mary's Hospital Heliport
Richmond, Virginia, USA

GOING TO RICHMOND?


FAA INFORMATION EFFECTIVE 08 OCTOBER 2020

Location

FAA Identifier: 37VA
Lat/Long: 37-34-56.6400N 077-30-48.9600W
37-34.944000N 077-30.816000W
37.5824000,-77.5136000
(estimated)
Elevation: 263 ft. / 80 m (estimated)
From city: 17 miles W of RICHMOND, VA
Time zone: UTC -4 (UTC -5 during Standard Time)
Zip code: 23226

Heliport Operations

Heliport use: Private use. Permission required prior to landing
Activation date: 05/2009
Control tower: no
ARTCC: WASHINGTON CENTER
FSS: LEESBURG FLIGHT SERVICE STATION
Attendance: CONTINUOUS
Wind indicator: yes
Segmented circle: no

Heliport Communications

WX ASOS at OFP (8 nm NE): 119.025 (804-752-2902)
WX ASOS at RIC (10 nm SE): PHONE 804-236-1091
WX AWOS-3PT at FCI (11 nm S): 128.625 (804-271-8426)
WX AWOS-3 at W96 (19 nm E): 119.875 (804-932-8863)

Nearby radio navigation aids

VOR radial/distance  VOR name  Freq  Var
RICr307/10.4RICHMOND VORTAC114.1009W
FAKr084/15.3FLAT ROCK VORTAC113.3006W
HPWr315/24.3HOPEWELL VORTAC112.0006W
HCMr289/39.0HARCUM VORTAC108.8007W
GVEr136/39.9GORDONSVILLE VORTAC115.6006W

 
NDB name  Hdg/Dist  Freq  Var  ID
BLACKSTONE052/37.232609WBKT -... -.- -

Heliport Services

Runway Information

Helipad H1

Dimensions: 40 x 40 ft. / 12 x 12 m
Surface: asphalt
Runway edge lights: PERI
Latitude: 37-34.944000N
Longitude: 077-30.816000W
Elevation: 263.0 ft.
Traffic pattern: leftleft

Heliport Ownership and Management from official FAA records

Ownership: Privately-owned
Owner: BON SECOURS RICHMOND HEALTH SYSTEM
5801 BREMO RD
RICHMOND, VA 23226
Phone 804-287-7833
Manager: MICHAEL ORTEGA
5801 BREMO RD
RICHMOND, VA 23226
Phone (804) 281-8594

Additional Remarks

A52-H1 16 FT LIGHT POLES 40 FT NW OF HELIPORT; 30 FT TREES 100 FT NW OF HELIPORT.

Instrument Procedures

There are no published instrument procedures at 37VA.

Some nearby airports with instrument procedures:

KOFP - Hanover County Municipal Airport (8 nm NE)
KRIC - Richmond International Airport (10 nm SE)
KFCI - Richmond Executive Airport-Chesterfield County (11 nm S)
W96 - New Kent County Airport (19 nm E)
KPTB - Dinwiddie County Airport (24 nm S)
 
Loc | Ops | Rwys | IFR | FBO | Links
Com | Nav | Svcs | Stats | Notes
Aerial photo
No photo
 
Sectional chart

 
Airport distance calculator
Flying to St Mary's Hospital Heliport? Find the distance to fly.

From to 37VA

Sunrise and sunset
Times for 20-Oct-2020
 Local
(UTC-4)
 Zulu
(UTC)
Morning civil twilight06:5810:58
Sunrise07:2511:25
Sunset18:2422:24
Evening civil twilight18:5122:51

Current date and time
Zulu (UTC)  20-Oct-2020 18:50:20
Local (UTC-4)  20-Oct-2020 14:50:20
 
METAR
KOFP 
8nm NE 
201754Z AUTO VRB03KT 10SM CLR 23/15 A3023 RMK AO2 SLP236 T02330150 10233 20156 58014
KRIC 
10nm SE 
201754Z VRB03KT 10SM FEW035 FEW300 24/16 A3022 RMK AO2 SLP236 T02440156 10244 20161 58013
KW96 
19nm E 
201835Z AUTO 00000KT 10SM CLR 24/16 A3021 RMK AO1 T02400163
TAF
KRIC 
10nm SE 
201726Z 2018/2118 21004KT P6SM FEW040 FM210300 00000KT P6SM BKN020 FM210600 00000KT 1SM BR OVC004 FM211500 VRB03KT P6SM BKN012 FM211700 18004KT P6SM BKN050
NOTAMs
Click for the latest NOTAMs
NOTAMs are issued by the DoD/FAA and will open in a separate window not controlled by AirNav.

 

 
 

Would you like to see your business listed on this page?

 If your business provides an interesting product or service to pilots, flight crews, aircraft, or users of the St Mary's Hospital Heliport, you should consider listing it here.  To start the listing process, click on the button below
 
Add a business
 

Other Pages about St Mary's Hospital Heliport

Update a link
 
Copyright © AirNav, LLC. All rights reserved. Privacy Policy  Contact